sensor_id;sensor_type;location;lat;lon;timestamp;P1;durP1;ratioP1;P2;durP2;ratioP2
20657;SDS011;10488;50.846;4.078;2022-07-29T00:00:54;3.67;;;1.10;;
20657;SDS011;10488;50.846;4.078;2022-07-29T00:03:20;2.63;;;1.02;;
20657;SDS011;10488;50.846;4.078;2022-07-29T00:05:45;5.85;;;1.38;;
20657;SDS011;10488;50.846;4.078;2022-07-29T00:08:12;1.90;;;1.27;;
20657;SDS011;10488;50.846;4.078;2022-07-29T00:10:38;11.18;;;1.40;;
20657;SDS011;10488;50.846;4.078;2022-07-29T00:13:04;3.35;;;1.50;;
20657;SDS011;10488;50.846;4.078;2022-07-29T00:15:29;3.40;;;1.67;;
20657;SDS011;10488;50.846;4.078;2022-07-29T00:17:56;4.25;;;1.30;;
20657;SDS011;10488;50.846;4.078;2022-07-29T00:20:22;4.93;;;1.45;;
20657;SDS011;10488;50.846;4.078;2022-07-29T00:22:47;4.45;;;1.42;;
20657;SDS011;10488;50.846;4.078;2022-07-29T00:25:13;1.92;;;1.05;;
20657;SDS011;10488;50.846;4.078;2022-07-29T00:27:38;4.13;;;1.23;;
20657;SDS011;10488;50.846;4.078;2022-07-29T00:30:04;4.75;;;1.30;;
20657;SDS011;10488;50.846;4.078;2022-07-29T00:32:31;6.28;;;1.45;;
20657;SDS011;10488;50.846;4.078;2022-07-29T00:34:57;4.18;;;1.20;;
20657;SDS011;10488;50.846;4.078;2022-07-29T00:37:41;5.55;;;1.20;;
20657;SDS011;10488;50.846;4.078;2022-07-29T00:40:07;3.75;;;1.65;;
20657;SDS011;10488;50.846;4.078;2022-07-29T00:42:46;7.57;;;1.15;;
20657;SDS011;10488;50.846;4.078;2022-07-29T00:45:14;2.03;;;1.50;;
20657;SDS011;10488;50.846;4.078;2022-07-29T00:47:41;3.78;;;1.10;;
20657;SDS011;10488;50.846;4.078;2022-07-29T00:50:08;3.45;;;1.30;;
20657;SDS011;10488;50.846;4.078;2022-07-29T00:52:35;4.72;;;1.65;;
20657;SDS011;10488;50.846;4.078;2022-07-29T00:55:04;6.60;;;1.83;;
20657;SDS011;10488;50.846;4.078;2022-07-29T00:57:32;4.03;;;1.58;;
20657;SDS011;10488;50.846;4.078;2022-07-29T00:59:58;5.93;;;1.60;;
20657;SDS011;10488;50.846;4.078;2022-07-29T01:02:23;4.65;;;1.52;;
20657;SDS011;10488;50.846;4.078;2022-07-29T01:04:49;4.25;;;1.50;;
20657;SDS011;10488;50.846;4.078;2022-07-29T01:07:16;5.35;;;1.58;;
20657;SDS011;10488;50.846;4.078;2022-07-29T01:09:43;3.33;;;1.52;;
20657;SDS011;10488;50.846;4.078;2022-07-29T01:12:11;1.65;;;1.48;;
20657;SDS011;10488;50.846;4.078;2022-07-29T01:14:38;3.83;;;1.70;;
20657;SDS011;10488;50.846;4.078;2022-07-29T01:22:53;3.50;;;1.75;;
20657;SDS011;10488;50.846;4.078;2022-07-29T01:31:19;3.42;;;1.60;;
20657;SDS011;10488;50.846;4.078;2022-07-29T01:33:50;4.30;;;1.55;;
20657;SDS011;10488;50.846;4.078;2022-07-29T01:36:27;2.20;;;1.38;;
20657;SDS011;10488;50.846;4.078;2022-07-29T01:39:19;2.55;;;1.45;;
20657;SDS011;10488;50.846;4.078;2022-07-29T01:44:37;2.03;;;1.40;;
20657;SDS011;10488;50.846;4.078;2022-07-29T01:47:11;6.30;;;1.45;;
20657;SDS011;10488;50.846;4.078;2022-07-29T01:49:41;4.65;;;1.98;;
20657;SDS011;10488;50.846;4.078;2022-07-29T01:52:20;4.70;;;1.73;;
20657;SDS011;10488;50.846;4.078;2022-07-29T01:54:52;4.50;;;2.10;;
20657;SDS011;10488;50.846;4.078;2022-07-29T01:57:28;5.85;;;1.50;;
20657;SDS011;10488;50.846;4.078;2022-07-29T01:59:57;9.93;;;2.00;;
20657;SDS011;10488;50.846;4.078;2022-07-29T02:02:25;4.38;;;2.25;;
20657;SDS011;10488;50.846;4.078;2022-07-29T02:04:51;4.70;;;1.90;;
20657;SDS011;10488;50.846;4.078;2022-07-29T02:07:20;4.80;;;2.45;;
20657;SDS011;10488;50.846;4.078;2022-07-29T02:09:49;6.20;;;1.70;;
20657;SDS011;10488;50.846;4.078;2022-07-29T02:12:17;3.05;;;1.73;;
20657;SDS011;10488;50.846;4.078;2022-07-29T02:14:45;3.67;;;2.00;;
20657;SDS011;10488;50.846;4.078;2022-07-29T02:17:15;5.88;;;1.95;;
20657;SDS011;10488;50.846;4.078;2022-07-29T02:19:47;4.28;;;1.63;;
20657;SDS011;10488;50.846;4.078;2022-07-29T02:22:14;4.47;;;2.22;;
20657;SDS011;10488;50.846;4.078;2022-07-29T02:24:44;6.05;;;1.88;;
20657;SDS011;10488;50.846;4.078;2022-07-29T02:27:12;2.60;;;1.60;;
20657;SDS011;10488;50.846;4.078;2022-07-29T02:29:39;1.83;;;1.60;;
20657;SDS011;10488;50.846;4.078;2022-07-29T02:32:06;4.97;;;1.77;;
20657;SDS011;10488;50.846;4.078;2022-07-29T02:34:35;2.28;;;1.90;;
20657;SDS011;10488;50.846;4.078;2022-07-29T02:37:03;5.45;;;1.98;;
20657;SDS011;10488;50.846;4.078;2022-07-29T02:39:30;2.65;;;1.52;;
20657;SDS011;10488;50.846;4.078;2022-07-29T02:42:07;5.10;;;1.85;;
20657;SDS011;10488;50.846;4.078;2022-07-29T02:44:34;3.53;;;1.75;;
20657;SDS011;10488;50.846;4.078;2022-07-29T02:50:02;4.35;;;1.90;;
20657;SDS011;10488;50.846;4.078;2022-07-29T02:55:29;4.35;;;2.00;;
20657;SDS011;10488;50.846;4.078;2022-07-29T03:00:51;10.05;;;2.65;;
20657;SDS011;10488;50.846;4.078;2022-07-29T03:03:18;4.28;;;2.72;;
20657;SDS011;10488;50.846;4.078;2022-07-29T03:05:45;4.72;;;2.10;;
20657;SDS011;10488;50.846;4.078;2022-07-29T03:08:12;3.70;;;2.10;;
20657;SDS011;10488;50.846;4.078;2022-07-29T03:10:43;9.80;;;2.33;;
20657;SDS011;10488;50.846;4.078;2022-07-29T03:13:11;3.08;;;2.20;;
20657;SDS011;10488;50.846;4.078;2022-07-29T03:15:42;4.88;;;2.30;;
20657;SDS011;10488;50.846;4.078;2022-07-29T03:18:09;3.00;;;1.95;;
20657;SDS011;10488;50.846;4.078;2022-07-29T03:20:35;3.05;;;2.20;;
20657;SDS011;10488;50.846;4.078;2022-07-29T03:23:02;8.85;;;2.83;;
20657;SDS011;10488;50.846;4.078;2022-07-29T03:25:28;6.65;;;2.22;;
20657;SDS011;10488;50.846;4.078;2022-07-29T03:27:53;4.38;;;2.38;;
20657;SDS011;10488;50.846;4.078;2022-07-29T03:30:19;4.88;;;2.08;;
20657;SDS011;10488;50.846;4.078;2022-07-29T03:32:45;5.97;;;2.40;;
20657;SDS011;10488;50.846;4.078;2022-07-29T03:35:10;5.68;;;2.47;;
20657;SDS011;10488;50.846;4.078;2022-07-29T03:37:36;4.88;;;2.30;;
20657;SDS011;10488;50.846;4.078;2022-07-29T03:40:03;5.72;;;2.30;;
20657;SDS011;10488;50.846;4.078;2022-07-29T03:42:33;6.65;;;2.65;;
20657;SDS011;10488;50.846;4.078;2022-07-29T03:45:05;3.10;;;2.20;;
20657;SDS011;10488;50.846;4.078;2022-07-29T03:47:33;5.75;;;2.45;;
20657;SDS011;10488;50.846;4.078;2022-07-29T03:50:05;6.88;;;2.67;;
20657;SDS011;10488;50.846;4.078;2022-07-29T03:52:32;7.32;;;2.20;;
20657;SDS011;10488;50.846;4.078;2022-07-29T03:54:58;5.50;;;2.42;;
20657;SDS011;10488;50.846;4.078;2022-07-29T03:57:25;3.97;;;2.42;;
20657;SDS011;10488;50.846;4.078;2022-07-29T03:59:52;7.85;;;3.20;;
20657;SDS011;10488;50.846;4.078;2022-07-29T04:02:20;6.78;;;2.60;;
20657;SDS011;10488;50.846;4.078;2022-07-29T04:04:46;6.13;;;2.80;;
20657;SDS011;10488;50.846;4.078;2022-07-29T04:07:13;7.85;;;2.35;;
20657;SDS011;10488;50.846;4.078;2022-07-29T04:09:41;4.70;;;2.45;;
20657;SDS011;10488;50.846;4.078;2022-07-29T04:12:08;3.95;;;2.25;;
20657;SDS011;10488;50.846;4.078;2022-07-29T04:14:34;2.88;;;2.55;;
20657;SDS011;10488;50.846;4.078;2022-07-29T04:17:02;5.18;;;3.05;;
20657;SDS011;10488;50.846;4.078;2022-07-29T04:19:30;5.50;;;2.58;;
20657;SDS011;10488;50.846;4.078;2022-07-29T04:21:58;7.95;;;2.95;;
20657;SDS011;10488;50.846;4.078;2022-07-29T04:24:24;6.30;;;3.20;;
20657;SDS011;10488;50.846;4.078;2022-07-29T04:26:51;8.02;;;2.58;;
20657;SDS011;10488;50.846;4.078;2022-07-29T04:29:17;5.45;;;3.10;;
20657;SDS011;10488;50.846;4.078;2022-07-29T04:31:44;7.20;;;3.10;;
20657;SDS011;10488;50.846;4.078;2022-07-29T04:34:11;6.75;;;3.45;;
20657;SDS011;10488;50.846;4.078;2022-07-29T04:36:37;6.82;;;3.10;;
20657;SDS011;10488;50.846;4.078;2022-07-29T04:39:03;4.40;;;2.88;;
20657;SDS011;10488;50.846;4.078;2022-07-29T04:41:31;6.55;;;3.03;;
20657;SDS011;10488;50.846;4.078;2022-07-29T04:43:57;9.13;;;3.33;;
20657;SDS011;10488;50.846;4.078;2022-07-29T04:46:26;8.02;;;3.13;;
20657;SDS011;10488;50.846;4.078;2022-07-29T04:48:52;4.65;;;3.25;;
20657;SDS011;10488;50.846;4.078;2022-07-29T04:51:17;6.90;;;3.47;;
20657;SDS011;10488;50.846;4.078;2022-07-29T04:53:43;11.40;;;3.42;;
20657;SDS011;10488;50.846;4.078;2022-07-29T04:56:10;8.75;;;3.38;;
20657;SDS011;10488;50.846;4.078;2022-07-29T04:58:36;5.60;;;3.65;;
20657;SDS011;10488;50.846;4.078;2022-07-29T05:01:03;8.82;;;3.42;;
20657;SDS011;10488;50.846;4.078;2022-07-29T05:03:28;7.47;;;2.90;;
20657;SDS011;10488;50.846;4.078;2022-07-29T05:05:55;11.70;;;3.30;;
20657;SDS011;10488;50.846;4.078;2022-07-29T05:08:21;8.23;;;3.45;;
20657;SDS011;10488;50.846;4.078;2022-07-29T05:10:47;6.65;;;3.40;;
20657;SDS011;10488;50.846;4.078;2022-07-29T05:13:13;5.00;;;3.45;;
20657;SDS011;10488;50.846;4.078;2022-07-29T05:15:39;5.97;;;3.50;;
20657;SDS011;10488;50.846;4.078;2022-07-29T05:18:06;8.18;;;3.42;;
20657;SDS011;10488;50.846;4.078;2022-07-29T05:20:31;8.32;;;3.50;;
20657;SDS011;10488;50.846;4.078;2022-07-29T05:22:59;4.90;;;3.78;;
20657;SDS011;10488;50.846;4.078;2022-07-29T05:25:26;7.45;;;4.00;;
20657;SDS011;10488;50.846;4.078;2022-07-29T05:27:53;6.60;;;3.85;;
20657;SDS011;10488;50.846;4.078;2022-07-29T05:30:20;6.75;;;4.50;;
20657;SDS011;10488;50.846;4.078;2022-07-29T05:32:46;6.60;;;3.80;;
20657;SDS011;10488;50.846;4.078;2022-07-29T05:35:12;7.78;;;3.47;;
20657;SDS011;10488;50.846;4.078;2022-07-29T05:37:39;4.35;;;3.40;;
20657;SDS011;10488;50.846;4.078;2022-07-29T05:40:05;10.02;;;4.05;;
20657;SDS011;10488;50.846;4.078;2022-07-29T05:42:31;4.32;;;3.35;;
20657;SDS011;10488;50.846;4.078;2022-07-29T05:44:58;4.57;;;3.30;;
20657;SDS011;10488;50.846;4.078;2022-07-29T05:47:24;8.23;;;3.28;;
20657;SDS011;10488;50.846;4.078;2022-07-29T05:49:52;6.50;;;4.07;;
20657;SDS011;10488;50.846;4.078;2022-07-29T05:52:20;6.85;;;3.50;;
20657;SDS011;10488;50.846;4.078;2022-07-29T05:54:46;5.47;;;3.35;;
20657;SDS011;10488;50.846;4.078;2022-07-29T05:57:19;6.53;;;3.20;;
20657;SDS011;10488;50.846;4.078;2022-07-29T05:59:46;4.68;;;3.30;;
20657;SDS011;10488;50.846;4.078;2022-07-29T06:02:15;8.85;;;3.35;;
20657;SDS011;10488;50.846;4.078;2022-07-29T06:04:42;5.50;;;2.85;;
20657;SDS011;10488;50.846;4.078;2022-07-29T06:07:08;7.10;;;3.42;;
20657;SDS011;10488;50.846;4.078;2022-07-29T06:09:34;8.20;;;3.45;;
20657;SDS011;10488;50.846;4.078;2022-07-29T06:12:01;5.80;;;3.13;;
20657;SDS011;10488;50.846;4.078;2022-07-29T06:14:26;7.18;;;2.80;;
20657;SDS011;10488;50.846;4.078;2022-07-29T06:16:53;5.53;;;2.90;;
20657;SDS011;10488;50.846;4.078;2022-07-29T06:19:19;5.55;;;2.70;;
20657;SDS011;10488;50.846;4.078;2022-07-29T06:21:45;8.23;;;2.83;;
20657;SDS011;10488;50.846;4.078;2022-07-29T06:24:13;7.78;;;2.92;;
20657;SDS011;10488;50.846;4.078;2022-07-29T06:26:41;2.88;;;2.15;;
20657;SDS011;10488;50.846;4.078;2022-07-29T06:29:08;6.07;;;2.92;;
20657;SDS011;10488;50.846;4.078;2022-07-29T06:31:35;6.68;;;2.78;;
20657;SDS011;10488;50.846;4.078;2022-07-29T06:34:03;4.47;;;2.40;;
20657;SDS011;10488;50.846;4.078;2022-07-29T06:36:29;4.55;;;2.60;;
20657;SDS011;10488;50.846;4.078;2022-07-29T06:38:57;8.45;;;2.42;;
20657;SDS011;10488;50.846;4.078;2022-07-29T06:41:22;4.30;;;2.13;;
20657;SDS011;10488;50.846;4.078;2022-07-29T06:43:48;5.50;;;2.40;;
20657;SDS011;10488;50.846;4.078;2022-07-29T06:46:16;6.78;;;2.13;;
20657;SDS011;10488;50.846;4.078;2022-07-29T06:48:43;5.60;;;2.75;;
20657;SDS011;10488;50.846;4.078;2022-07-29T06:51:09;5.70;;;2.65;;
20657;SDS011;10488;50.846;4.078;2022-07-29T06:53:36;4.65;;;3.42;;
20657;SDS011;10488;50.846;4.078;2022-07-29T06:56:03;4.75;;;2.60;;
20657;SDS011;10488;50.846;4.078;2022-07-29T06:58:30;7.97;;;2.70;;
20657;SDS011;10488;50.846;4.078;2022-07-29T07:00:57;6.47;;;2.67;;
20657;SDS011;10488;50.846;4.078;2022-07-29T07:03:23;5.53;;;2.80;;
20657;SDS011;10488;50.846;4.078;2022-07-29T07:05:49;5.35;;;2.75;;
20657;SDS011;10488;50.846;4.078;2022-07-29T07:08:17;5.00;;;2.65;;
20657;SDS011;10488;50.846;4.078;2022-07-29T07:10:44;11.15;;;2.72;;
20657;SDS011;10488;50.846;4.078;2022-07-29T07:13:11;5.75;;;3.03;;
20657;SDS011;10488;50.846;4.078;2022-07-29T07:15:37;4.05;;;3.10;;
20657;SDS011;10488;50.846;4.078;2022-07-29T07:18:04;4.15;;;2.63;;
20657;SDS011;10488;50.846;4.078;2022-07-29T07:20:32;8.10;;;3.38;;
20657;SDS011;10488;50.846;4.078;2022-07-29T07:22:59;9.90;;;2.60;;
20657;SDS011;10488;50.846;4.078;2022-07-29T07:25:24;4.80;;;2.60;;
20657;SDS011;10488;50.846;4.078;2022-07-29T07:27:50;4.05;;;2.60;;
20657;SDS011;10488;50.846;4.078;2022-07-29T07:30:16;2.78;;;2.30;;
20657;SDS011;10488;50.846;4.078;2022-07-29T07:32:41;6.80;;;3.40;;
20657;SDS011;10488;50.846;4.078;2022-07-29T07:35:08;11.48;;;3.53;;
20657;SDS011;10488;50.846;4.078;2022-07-29T07:37:35;5.10;;;3.00;;
20657;SDS011;10488;50.846;4.078;2022-07-29T07:40:02;5.15;;;3.00;;
20657;SDS011;10488;50.846;4.078;2022-07-29T07:42:30;4.03;;;2.95;;
20657;SDS011;10488;50.846;4.078;2022-07-29T07:44:55;10.00;;;2.42;;
20657;SDS011;10488;50.846;4.078;2022-07-29T07:47:21;6.63;;;2.72;;
20657;SDS011;10488;50.846;4.078;2022-07-29T07:49:51;7.43;;;2.97;;
20657;SDS011;10488;50.846;4.078;2022-07-29T07:52:19;9.82;;;3.22;;
20657;SDS011;10488;50.846;4.078;2022-07-29T07:54:46;13.43;;;3.13;;
20657;SDS011;10488;50.846;4.078;2022-07-29T07:57:12;3.10;;;2.30;;
20657;SDS011;10488;50.846;4.078;2022-07-29T07:59:39;6.43;;;2.95;;
20657;SDS011;10488;50.846;4.078;2022-07-29T08:02:05;3.72;;;2.35;;
20657;SDS011;10488;50.846;4.078;2022-07-29T08:04:34;5.03;;;2.33;;
20657;SDS011;10488;50.846;4.078;2022-07-29T08:06:59;6.07;;;3.03;;
20657;SDS011;10488;50.846;4.078;2022-07-29T08:09:26;3.72;;;2.47;;
20657;SDS011;10488;50.846;4.078;2022-07-29T08:11:54;4.82;;;3.15;;
20657;SDS011;10488;50.846;4.078;2022-07-29T08:14:20;6.88;;;3.65;;
20657;SDS011;10488;50.846;4.078;2022-07-29T08:16:52;8.93;;;3.38;;
20657;SDS011;10488;50.846;4.078;2022-07-29T08:19:19;7.05;;;2.65;;
20657;SDS011;10488;50.846;4.078;2022-07-29T08:21:46;6.38;;;3.15;;
20657;SDS011;10488;50.846;4.078;2022-07-29T08:24:11;6.57;;;3.00;;
20657;SDS011;10488;50.846;4.078;2022-07-29T08:26:56;3.92;;;2.90;;
20657;SDS011;10488;50.846;4.078;2022-07-29T08:29:23;6.97;;;2.60;;
20657;SDS011;10488;50.846;4.078;2022-07-29T08:31:50;6.78;;;2.70;;
20657;SDS011;10488;50.846;4.078;2022-07-29T08:34:15;5.32;;;2.92;;
20657;SDS011;10488;50.846;4.078;2022-07-29T08:36:42;7.72;;;3.30;;
20657;SDS011;10488;50.846;4.078;2022-07-29T08:39:08;3.00;;;2.70;;
20657;SDS011;10488;50.846;4.078;2022-07-29T08:41:36;6.70;;;3.17;;
20657;SDS011;10488;50.846;4.078;2022-07-29T08:44:01;6.10;;;2.22;;
20657;SDS011;10488;50.846;4.078;2022-07-29T08:46:27;4.93;;;2.30;;
20657;SDS011;10488;50.846;4.078;2022-07-29T08:48:55;5.78;;;2.22;;
20657;SDS011;10488;50.846;4.078;2022-07-29T08:51:23;6.10;;;2.28;;
20657;SDS011;10488;50.846;4.078;2022-07-29T08:53:51;6.15;;;2.95;;
20657;SDS011;10488;50.846;4.078;2022-07-29T08:56:21;4.05;;;2.22;;
20657;SDS011;10488;50.846;4.078;2022-07-29T08:58:48;3.03;;;2.00;;
20657;SDS011;10488;50.846;4.078;2022-07-29T09:01:22;4.35;;;2.70;;
20657;SDS011;10488;50.846;4.078;2022-07-29T09:03:49;2.63;;;2.22;;
20657;SDS011;10488;50.846;4.078;2022-07-29T09:06:19;4.55;;;2.50;;
20657;SDS011;10488;50.846;4.078;2022-07-29T09:08:47;5.68;;;2.58;;
20657;SDS011;10488;50.846;4.078;2022-07-29T09:11:14;5.70;;;3.13;;
20657;SDS011;10488;50.846;4.078;2022-07-29T09:13:40;8.52;;;2.75;;
20657;SDS011;10488;50.846;4.078;2022-07-29T09:16:06;5.38;;;2.95;;
20657;SDS011;10488;50.846;4.078;2022-07-29T09:21:08;6.45;;;2.95;;
20657;SDS011;10488;50.846;4.078;2022-07-29T09:24:01;7.75;;;2.50;;
20657;SDS011;10488;50.846;4.078;2022-07-29T09:26:38;4.97;;;2.85;;
20657;SDS011;10488;50.846;4.078;2022-07-29T09:29:10;6.18;;;2.63;;
20657;SDS011;10488;50.846;4.078;2022-07-29T09:31:50;7.65;;;3.33;;
20657;SDS011;10488;50.846;4.078;2022-07-29T09:34:21;7.78;;;2.88;;
20657;SDS011;10488;50.846;4.078;2022-07-29T09:36:49;7.50;;;2.50;;
20657;SDS011;10488;50.846;4.078;2022-07-29T09:42:01;6.00;;;2.10;;
20657;SDS011;10488;50.846;4.078;2022-07-29T09:47:40;6.30;;;2.55;;
20657;SDS011;10488;50.846;4.078;2022-07-29T09:50:12;7.32;;;1.85;;
20657;SDS011;10488;50.846;4.078;2022-07-29T09:52:53;13.63;;;2.13;;
20657;SDS011;10488;50.846;4.078;2022-07-29T09:55:19;4.88;;;1.85;;
20657;SDS011;10488;50.846;4.078;2022-07-29T09:57:46;3.55;;;1.83;;
20657;SDS011;10488;50.846;4.078;2022-07-29T10:00:17;6.70;;;2.20;;
20657;SDS011;10488;50.846;4.078;2022-07-29T10:02:46;6.13;;;1.73;;
20657;SDS011;10488;50.846;4.078;2022-07-29T10:07:58;5.65;;;2.10;;
20657;SDS011;10488;50.846;4.078;2022-07-29T10:10:30;7.47;;;2.75;;
20657;SDS011;10488;50.846;4.078;2022-07-29T10:13:03;5.35;;;2.45;;
20657;SDS011;10488;50.846;4.078;2022-07-29T10:15:37;7.28;;;2.38;;
20657;SDS011;10488;50.846;4.078;2022-07-29T10:18:11;10.05;;;2.90;;
20657;SDS011;10488;50.846;4.078;2022-07-29T10:20:39;7.63;;;2.95;;
20657;SDS011;10488;50.846;4.078;2022-07-29T10:23:05;7.90;;;2.90;;
20657;SDS011;10488;50.846;4.078;2022-07-29T10:25:31;5.32;;;2.40;;
20657;SDS011;10488;50.846;4.078;2022-07-29T10:27:58;5.20;;;2.50;;
20657;SDS011;10488;50.846;4.078;2022-07-29T10:30:25;11.32;;;3.17;;
20657;SDS011;10488;50.846;4.078;2022-07-29T10:44:19;7.85;;;2.63;;
20657;SDS011;10488;50.846;4.078;2022-07-29T10:46:47;7.50;;;2.78;;
20657;SDS011;10488;50.846;4.078;2022-07-29T10:49:20;5.90;;;2.40;;
20657;SDS011;10488;50.846;4.078;2022-07-29T10:54:16;6.03;;;2.42;;
20657;SDS011;10488;50.846;4.078;2022-07-29T10:56:42;7.40;;;2.20;;
20657;SDS011;10488;50.846;4.078;2022-07-29T11:01:47;4.00;;;1.88;;
20657;SDS011;10488;50.846;4.078;2022-07-29T11:04:14;4.07;;;1.90;;
20657;SDS011;10488;50.846;4.078;2022-07-29T11:09:25;3.47;;;1.48;;
20657;SDS011;10488;50.846;4.078;2022-07-29T11:11:53;5.82;;;2.08;;
20657;SDS011;10488;50.846;4.078;2022-07-29T11:14:54;6.60;;;2.00;;
20657;SDS011;10488;50.846;4.078;2022-07-29T11:17:17;4.55;;;2.17;;
20657;SDS011;10488;50.846;4.078;2022-07-29T11:19:43;8.15;;;2.15;;
20657;SDS011;10488;50.846;4.078;2022-07-29T11:22:10;6.43;;;2.17;;
20657;SDS011;10488;50.846;4.078;2022-07-29T11:24:37;7.80;;;2.13;;
20657;SDS011;10488;50.846;4.078;2022-07-29T11:32:17;7.50;;;3.42;;
20657;SDS011;10488;50.846;4.078;2022-07-29T11:34:47;4.28;;;1.83;;
20657;SDS011;10488;50.846;4.078;2022-07-29T11:37:14;6.35;;;1.80;;
20657;SDS011;10488;50.846;4.078;2022-07-29T11:39:44;3.38;;;1.80;;
20657;SDS011;10488;50.846;4.078;2022-07-29T11:44:55;5.05;;;1.85;;
20657;SDS011;10488;50.846;4.078;2022-07-29T11:47:25;4.43;;;2.15;;
20657;SDS011;10488;50.846;4.078;2022-07-29T11:49:52;10.38;;;2.65;;
20657;SDS011;10488;50.846;4.078;2022-07-29T11:52:19;3.47;;;1.80;;
20657;SDS011;10488;50.846;4.078;2022-07-29T11:54:47;5.90;;;1.83;;
20657;SDS011;10488;50.846;4.078;2022-07-29T11:57:18;4.90;;;1.25;;
20657;SDS011;10488;50.846;4.078;2022-07-29T11:59:45;3.90;;;1.83;;
20657;SDS011;10488;50.846;4.078;2022-07-29T12:02:13;11.70;;;1.98;;
20657;SDS011;10488;50.846;4.078;2022-07-29T12:04:53;6.32;;;1.80;;
20657;SDS011;10488;50.846;4.078;2022-07-29T12:07:27;6.93;;;1.80;;
20657;SDS011;10488;50.846;4.078;2022-07-29T12:09:53;7.10;;;1.50;;
20657;SDS011;10488;50.846;4.078;2022-07-29T12:12:19;5.25;;;1.50;;
20657;SDS011;10488;50.846;4.078;2022-07-29T12:14:45;4.07;;;1.50;;
20657;SDS011;10488;50.846;4.078;2022-07-29T12:19:57;9.57;;;2.10;;
20657;SDS011;10488;50.846;4.078;2022-07-29T12:22:31;2.38;;;1.50;;
20657;SDS011;10488;50.846;4.078;2022-07-29T12:25:01;7.47;;;1.73;;
20657;SDS011;10488;50.846;4.078;2022-07-29T12:27:28;6.75;;;1.63;;
20657;SDS011;10488;50.846;4.078;2022-07-29T12:29:59;4.00;;;1.63;;
20657;SDS011;10488;50.846;4.078;2022-07-29T12:35:06;2.28;;;1.85;;
20657;SDS011;10488;50.846;4.078;2022-07-29T12:37:35;4.97;;;1.45;;
20657;SDS011;10488;50.846;4.078;2022-07-29T12:40:03;6.15;;;1.60;;
20657;SDS011;10488;50.846;4.078;2022-07-29T12:42:30;5.65;;;1.85;;
20657;SDS011;10488;50.846;4.078;2022-07-29T12:44:56;6.43;;;1.58;;
20657;SDS011;10488;50.846;4.078;2022-07-29T12:47:22;10.68;;;1.90;;
20657;SDS011;10488;50.846;4.078;2022-07-29T12:49:48;6.10;;;1.60;;
20657;SDS011;10488;50.846;4.078;2022-07-29T12:52:31;8.60;;;2.13;;
20657;SDS011;10488;50.846;4.078;2022-07-29T12:55:00;6.35;;;1.63;;
20657;SDS011;10488;50.846;4.078;2022-07-29T12:57:27;4.47;;;1.70;;
20657;SDS011;10488;50.846;4.078;2022-07-29T13:02:33;4.43;;;2.30;;
20657;SDS011;10488;50.846;4.078;2022-07-29T13:05:00;7.68;;;2.53;;
20657;SDS011;10488;50.846;4.078;2022-07-29T13:07:30;6.55;;;1.70;;
20657;SDS011;10488;50.846;4.078;2022-07-29T13:15:28;6.30;;;2.22;;
20657;SDS011;10488;50.846;4.078;2022-07-29T13:17:54;8.07;;;1.80;;
20657;SDS011;10488;50.846;4.078;2022-07-29T13:20:25;4.68;;;1.98;;
20657;SDS011;10488;50.846;4.078;2022-07-29T13:22:54;3.42;;;1.92;;
20657;SDS011;10488;50.846;4.078;2022-07-29T13:25:29;7.57;;;2.28;;
20657;SDS011;10488;50.846;4.078;2022-07-29T13:27:57;5.13;;;2.17;;
20657;SDS011;10488;50.846;4.078;2022-07-29T13:30:23;4.28;;;2.05;;
20657;SDS011;10488;50.846;4.078;2022-07-29T13:32:50;6.93;;;2.22;;
20657;SDS011;10488;50.846;4.078;2022-07-29T13:35:19;5.97;;;1.80;;
20657;SDS011;10488;50.846;4.078;2022-07-29T13:37:46;6.75;;;1.80;;
20657;SDS011;10488;50.846;4.078;2022-07-29T13:40:13;5.05;;;2.80;;
20657;SDS011;10488;50.846;4.078;2022-07-29T13:42:39;6.10;;;2.50;;
20657;SDS011;10488;50.846;4.078;2022-07-29T13:45:06;7.10;;;2.17;;
20657;SDS011;10488;50.846;4.078;2022-07-29T13:47:32;6.72;;;2.17;;
20657;SDS011;10488;50.846;4.078;2022-07-29T13:49:59;4.18;;;2.30;;
20657;SDS011;10488;50.846;4.078;2022-07-29T13:52:25;6.75;;;2.25;;
20657;SDS011;10488;50.846;4.078;2022-07-29T13:54:51;6.72;;;2.60;;
20657;SDS011;10488;50.846;4.078;2022-07-29T13:57:18;16.50;;;2.47;;
20657;SDS011;10488;50.846;4.078;2022-07-29T13:59:44;5.20;;;2.10;;
20657;SDS011;10488;50.846;4.078;2022-07-29T14:02:10;7.78;;;1.75;;
20657;SDS011;10488;50.846;4.078;2022-07-29T14:04:37;2.53;;;1.85;;
20657;SDS011;10488;50.846;4.078;2022-07-29T14:07:03;5.68;;;2.60;;
20657;SDS011;10488;50.846;4.078;2022-07-29T14:09:29;8.95;;;2.38;;
20657;SDS011;10488;50.846;4.078;2022-07-29T14:11:56;4.90;;;2.10;;
20657;SDS011;10488;50.846;4.078;2022-07-29T14:14:22;5.75;;;2.00;;
20657;SDS011;10488;50.846;4.078;2022-07-29T14:16:47;8.10;;;2.20;;
20657;SDS011;10488;50.846;4.078;2022-07-29T14:19:13;6.82;;;2.30;;
20657;SDS011;10488;50.846;4.078;2022-07-29T14:21:40;5.10;;;1.95;;
20657;SDS011;10488;50.846;4.078;2022-07-29T14:24:05;4.90;;;2.97;;
20657;SDS011;10488;50.846;4.078;2022-07-29T14:26:31;5.60;;;2.50;;
20657;SDS011;10488;50.846;4.078;2022-07-29T14:28:57;10.02;;;2.60;;
20657;SDS011;10488;50.846;4.078;2022-07-29T14:31:23;9.10;;;2.70;;
20657;SDS011;10488;50.846;4.078;2022-07-29T14:33:49;4.63;;;2.80;;
20657;SDS011;10488;50.846;4.078;2022-07-29T14:36:15;5.93;;;2.00;;
20657;SDS011;10488;50.846;4.078;2022-07-29T14:38:41;7.55;;;2.70;;
20657;SDS011;10488;50.846;4.078;2022-07-29T14:41:07;7.35;;;2.08;;
20657;SDS011;10488;50.846;4.078;2022-07-29T14:43:33;6.38;;;1.80;;
20657;SDS011;10488;50.846;4.078;2022-07-29T14:46:01;6.10;;;1.65;;
20657;SDS011;10488;50.846;4.078;2022-07-29T14:48:27;3.40;;;2.10;;
20657;SDS011;10488;50.846;4.078;2022-07-29T14:50:53;3.30;;;1.83;;
20657;SDS011;10488;50.846;4.078;2022-07-29T14:53:20;8.18;;;2.08;;
20657;SDS011;10488;50.846;4.078;2022-07-29T14:55:47;9.25;;;2.28;;
20657;SDS011;10488;50.846;4.078;2022-07-29T14:58:12;5.65;;;1.40;;
20657;SDS011;10488;50.846;4.078;2022-07-29T15:00:39;2.92;;;1.63;;
20657;SDS011;10488;50.846;4.078;2022-07-29T15:03:05;3.90;;;1.67;;
20657;SDS011;10488;50.846;4.078;2022-07-29T15:05:34;4.43;;;2.00;;
20657;SDS011;10488;50.846;4.078;2022-07-29T15:08:03;3.25;;;2.00;;
20657;SDS011;10488;50.846;4.078;2022-07-29T15:10:29;4.45;;;2.35;;
20657;SDS011;10488;50.846;4.078;2022-07-29T15:12:56;5.38;;;1.60;;
20657;SDS011;10488;50.846;4.078;2022-07-29T15:15:22;3.60;;;2.10;;
20657;SDS011;10488;50.846;4.078;2022-07-29T15:17:47;5.43;;;1.73;;
20657;SDS011;10488;50.846;4.078;2022-07-29T15:20:13;5.45;;;1.60;;
20657;SDS011;10488;50.846;4.078;2022-07-29T15:22:40;4.05;;;1.83;;
20657;SDS011;10488;50.846;4.078;2022-07-29T15:25:09;2.47;;;1.25;;
20657;SDS011;10488;50.846;4.078;2022-07-29T15:27:36;4.20;;;1.58;;
20657;SDS011;10488;50.846;4.078;2022-07-29T15:30:02;7.03;;;2.03;;
20657;SDS011;10488;50.846;4.078;2022-07-29T15:32:28;4.78;;;1.48;;
20657;SDS011;10488;50.846;4.078;2022-07-29T15:34:53;8.32;;;2.10;;
20657;SDS011;10488;50.846;4.078;2022-07-29T15:37:19;6.45;;;1.92;;
20657;SDS011;10488;50.846;4.078;2022-07-29T15:39:45;6.50;;;1.88;;
20657;SDS011;10488;50.846;4.078;2022-07-29T15:42:11;7.80;;;2.42;;
20657;SDS011;10488;50.846;4.078;2022-07-29T15:44:36;7.45;;;1.88;;
20657;SDS011;10488;50.846;4.078;2022-07-29T15:47:02;3.85;;;1.95;;
20657;SDS011;10488;50.846;4.078;2022-07-29T15:49:28;3.10;;;1.73;;
20657;SDS011;10488;50.846;4.078;2022-07-29T15:52:00;3.40;;;1.90;;
20657;SDS011;10488;50.846;4.078;2022-07-29T15:54:28;5.70;;;1.90;;
20657;SDS011;10488;50.846;4.078;2022-07-29T15:56:55;7.28;;;1.65;;
20657;SDS011;10488;50.846;4.078;2022-07-29T15:59:21;4.72;;;2.25;;
20657;SDS011;10488;50.846;4.078;2022-07-29T16:01:47;3.65;;;1.73;;
20657;SDS011;10488;50.846;4.078;2022-07-29T16:04:13;6.72;;;2.58;;
20657;SDS011;10488;50.846;4.078;2022-07-29T16:06:39;6.57;;;2.00;;